createdAt,value
2022-12-04T00:00:17.964Z,38.93
2022-12-04T00:02:44.832Z,39.87
2022-12-04T00:05:11.596Z,39.53
2022-12-04T00:07:38.180Z,39.60
2022-12-04T00:10:05.055Z,39.67
2022-12-04T00:12:31.656Z,38.70
2022-12-04T00:15:24.747Z,40.10
2022-12-04T00:17:48.012Z,38.67
2022-12-04T00:20:15.112Z,40.67
2022-12-04T00:22:41.550Z,40.63
2022-12-04T00:25:08.368Z,40.60
2022-12-04T00:27:35.427Z,39.70
2022-12-04T00:30:02.044Z,38.33
2022-12-04T00:32:28.705Z,37.47
2022-12-04T00:34:55.268Z,39.80
2022-12-04T00:37:21.700Z,38.67
2022-12-04T00:39:48.324Z,40.27
2022-12-04T00:42:15.079Z,38.60
2022-12-04T00:44:41.601Z,41.00
2022-12-04T00:47:08.172Z,39.03
2022-12-04T00:49:35.591Z,36.73
2022-12-04T00:52:02.047Z,37.00
2022-12-04T00:54:28.729Z,39.17
2022-12-04T00:56:55.298Z,39.17
2022-12-04T00:59:21.762Z,37.77
2022-12-04T01:01:48.312Z,39.90
2022-12-04T01:04:14.926Z,40.57
2022-12-04T01:06:41.443Z,40.63
2022-12-04T01:09:08.291Z,40.20
2022-12-04T01:11:35.443Z,40.70
2022-12-04T01:14:02.098Z,41.03
2022-12-04T01:16:32.417Z,41.27
2022-12-04T01:18:59.579Z,39.30
2022-12-04T01:21:26.180Z,39.53
2022-12-04T01:23:53.033Z,39.80
2022-12-04T01:26:20.000Z,41.73
2022-12-04T01:28:46.624Z,39.20
2022-12-04T01:31:16.832Z,38.13
2022-12-04T01:33:44.006Z,39.07
2022-12-04T01:36:13.038Z,39.70
2022-12-04T01:38:39.789Z,38.03
2022-12-04T01:41:07.778Z,38.97
2022-12-04T01:43:36.186Z,37.80
2022-12-04T01:46:03.512Z,40.17
2022-12-04T01:48:35.177Z,37.20
2022-12-04T01:51:15.579Z,41.17
2022-12-04T01:53:44.148Z,37.97
2022-12-04T01:56:10.886Z,36.47
2022-12-04T01:58:42.348Z,38.30
2022-12-04T02:01:09.617Z,37.67
2022-12-04T02:03:37.301Z,38.13
2022-12-04T02:06:04.032Z,38.97
2022-12-04T02:08:30.720Z,39.67
2022-12-04T02:11:15.778Z,39.97
2022-12-04T02:13:46.728Z,38.47
2022-12-04T02:16:22.043Z,38.70
2022-12-04T02:19:20.167Z,37.73
2022-12-04T02:21:48.552Z,34.27
2022-12-04T02:24:17.660Z,34.97
2022-12-04T02:26:48.030Z,33.93
2022-12-04T02:29:24.409Z,34.10
2022-12-04T02:31:58.846Z,34.43
2022-12-04T02:34:50.448Z,33.50
2022-12-04T02:37:19.927Z,33.83
2022-12-04T02:39:53.989Z,35.10
2022-12-04T02:42:31.202Z,35.23
2022-12-04T02:45:01.662Z,32.27
2022-12-04T02:47:28.118Z,33.53
2022-12-04T02:49:54.758Z,33.30
2022-12-04T02:52:24.974Z,34.93
2022-12-04T02:54:54.718Z,33.93
2022-12-04T02:57:27.258Z,34.53
2022-12-04T02:59:56.784Z,33.03
2022-12-04T03:02:29.182Z,32.57
2022-12-04T03:04:56.356Z,32.40
2022-12-04T03:07:28.927Z,33.70
2022-12-04T03:09:59.881Z,32.73
2022-12-04T03:12:44.539Z,35.03
2022-12-04T03:15:35.742Z,33.63
2022-12-04T03:18:12.730Z,33.43
2022-12-04T03:20:39.528Z,33.53
2022-12-04T03:23:19.583Z,33.33
2022-12-04T03:25:53.830Z,34.33
2022-12-04T03:28:27.835Z,34.83
2022-12-04T03:30:58.809Z,33.57
2022-12-04T03:33:36.416Z,35.57
2022-12-04T03:36:27.927Z,34.00
2022-12-04T03:39:19.403Z,33.10
2022-12-04T03:41:55.832Z,33.53
2022-12-04T03:44:37.904Z,33.30
2022-12-04T03:47:07.619Z,33.17
2022-12-04T03:49:42.916Z,34.80
2022-12-04T03:52:25.055Z,34.60
2022-12-04T03:54:58.141Z,34.40
2022-12-04T03:57:29.447Z,33.43
2022-12-04T04:00:02.271Z,32.47
2022-12-04T04:02:33.980Z,33.83
2022-12-04T04:05:01.473Z,29.43
2022-12-04T04:07:39.865Z,31.93
2022-12-04T04:10:13.038Z,30.17
2022-12-04T04:12:45.922Z,31.17
2022-12-04T04:15:32.472Z,32.10
2022-12-04T04:18:18.327Z,31.20
2022-12-04T04:21:10.946Z,30.03
2022-12-04T04:24:03.823Z,29.83
2022-12-04T04:26:34.527Z,27.97
2022-12-04T04:29:01.143Z,27.83
2022-12-04T04:31:58.475Z,26.17
2022-12-04T04:34:29.281Z,26.23
2022-12-04T04:37:03.816Z,26.43
2022-12-04T04:39:35.097Z,25.20
2022-12-04T04:42:07.754Z,26.97
2022-12-04T04:45:01.514Z,25.37
2022-12-04T04:47:54.312Z,25.67
2022-12-04T04:50:21.663Z,24.77
2022-12-04T04:52:51.203Z,25.53
2022-12-04T04:55:18.431Z,25.63
2022-12-04T04:57:45.040Z,25.87
2022-12-04T05:00:14.603Z,25.10
2022-12-04T05:02:41.324Z,25.43
2022-12-04T05:05:08.261Z,26.70
2022-12-04T05:07:35.280Z,26.13
2022-12-04T05:10:01.722Z,25.67
2022-12-04T05:12:28.264Z,27.10
2022-12-04T05:14:54.729Z,25.77
2022-12-04T05:17:21.141Z,27.53
2022-12-04T05:19:53.738Z,27.40
2022-12-04T05:22:35.223Z,28.23
2022-12-04T05:25:02.390Z,28.73
2022-12-04T05:27:29.728Z,29.67
2022-12-04T05:29:57.692Z,28.97
2022-12-04T05:32:27.108Z,29.00
2022-12-04T05:34:55.291Z,29.30
2022-12-04T05:37:22.175Z,28.83
2022-12-04T05:39:48.656Z,29.07
2022-12-04T05:42:15.447Z,30.20
2022-12-04T05:44:41.903Z,29.70
2022-12-04T05:47:08.437Z,29.73
2022-12-04T05:49:35.301Z,29.87
2022-12-04T05:52:04.395Z,29.40
2022-12-04T05:54:30.935Z,28.93
2022-12-04T05:56:57.386Z,30.87
2022-12-04T05:59:23.816Z,29.47
2022-12-04T06:01:50.376Z,29.00
2022-12-04T06:04:17.066Z,28.27
2022-12-04T06:06:43.497Z,30.47
2022-12-04T06:09:11.155Z,28.00
2022-12-04T06:11:39.124Z,27.70
2022-12-04T06:14:07.210Z,28.90
2022-12-04T06:16:40.606Z,28.20
2022-12-04T06:19:09.718Z,28.10
2022-12-04T06:21:38.220Z,25.67
2022-12-04T06:24:05.204Z,27.70
2022-12-04T06:26:31.734Z,25.50
2022-12-04T06:28:58.940Z,27.83
2022-12-04T06:31:27.250Z,25.40
2022-12-04T06:33:55.003Z,25.53
2022-12-04T06:36:21.908Z,27.40
2022-12-04T06:38:49.798Z,26.00
2022-12-04T06:41:18.676Z,26.17
2022-12-04T06:43:45.531Z,24.83
2022-12-04T06:46:14.224Z,25.97
2022-12-04T06:48:41.580Z,26.13
2022-12-04T06:51:14.066Z,26.73
2022-12-04T06:53:41.135Z,25.50
2022-12-04T06:56:10.605Z,24.77
2022-12-04T06:58:37.775Z,26.00
2022-12-04T07:01:13.056Z,24.60
2022-12-04T07:03:40.052Z,25.80
2022-12-04T07:06:23.078Z,26.67
2022-12-04T07:08:55.432Z,27.33
2022-12-04T07:11:22.461Z,27.07
2022-12-04T07:13:49.771Z,28.40
2022-12-04T07:16:19.010Z,27.90
2022-12-04T07:18:45.867Z,27.53
2022-12-04T07:21:16.199Z,27.67
2022-12-04T07:23:42.706Z,29.17
2022-12-04T07:26:11.563Z,29.00
2022-12-04T07:28:39.393Z,27.30
2022-12-04T07:31:06.963Z,27.70
2022-12-04T07:33:35.266Z,25.43
2022-12-04T07:36:04.317Z,28.00
2022-12-04T07:38:31.491Z,26.80
2022-12-04T07:40:59.344Z,27.07
2022-12-04T07:43:27.107Z,29.20
2022-12-04T07:45:53.815Z,28.87
2022-12-04T07:48:20.550Z,26.63
2022-12-04T07:50:47.241Z,25.87
2022-12-04T07:53:13.878Z,26.50
2022-12-04T07:55:40.478Z,25.57
2022-12-04T07:58:07.007Z,24.87
2022-12-04T08:00:33.879Z,23.63
2022-12-04T08:03:00.633Z,24.70
2022-12-04T08:05:27.144Z,23.40
2022-12-04T08:07:53.708Z,24.13
2022-12-04T08:10:20.326Z,23.07
2022-12-04T08:12:46.950Z,23.60
2022-12-04T08:15:13.547Z,24.33
2022-12-04T08:17:40.373Z,23.80
2022-12-04T08:20:07.472Z,22.97
2022-12-04T08:22:34.070Z,23.43
2022-12-04T08:25:00.613Z,25.40
2022-12-04T08:27:27.312Z,24.07
2022-12-04T08:29:54.106Z,24.23
2022-12-04T08:32:21.227Z,24.43
2022-12-04T08:34:54.112Z,25.20
2022-12-04T08:37:22.408Z,22.57
2022-12-04T08:39:48.913Z,25.53
2022-12-04T08:42:15.392Z,22.87
2022-12-04T08:44:41.976Z,23.83
2022-12-04T08:47:08.447Z,24.30
2022-12-04T08:49:35.414Z,23.50
2022-12-04T08:52:01.823Z,25.07
2022-12-04T08:54:31.762Z,22.90
2022-12-04T08:57:02.462Z,24.47
2022-12-04T08:59:29.108Z,24.40
2022-12-04T09:01:55.573Z,24.30
2022-12-04T09:04:22.225Z,22.57
2022-12-04T09:06:48.829Z,24.07
2022-12-04T09:09:15.462Z,24.17
2022-12-04T09:11:45.270Z,25.17
2022-12-04T09:14:11.931Z,24.47
2022-12-04T09:16:38.448Z,25.40
2022-12-04T09:19:05.127Z,23.23
2022-12-04T09:21:31.571Z,23.50
2022-12-04T09:23:59.286Z,23.07
2022-12-04T09:26:28.323Z,24.87
2022-12-04T09:28:55.850Z,25.63
2022-12-04T09:31:23.399Z,24.07
2022-12-04T09:33:50.041Z,23.63
2022-12-04T09:36:17.175Z,23.10
2022-12-04T09:38:45.895Z,22.30
2022-12-04T09:41:39.042Z,22.47
2022-12-04T09:44:15.725Z,22.47
2022-12-04T09:46:51.188Z,23.17
2022-12-04T09:49:23.839Z,21.87
2022-12-04T09:51:51.470Z,23.27
2022-12-04T09:54:24.169Z,22.97
2022-12-04T09:56:56.038Z,23.07
2022-12-04T09:59:26.855Z,22.77
2022-12-04T10:02:04.814Z,22.47
2022-12-04T10:04:31.420Z,21.70
2022-12-04T10:07:05.425Z,22.37
2022-12-04T10:09:41.029Z,22.27
2022-12-04T10:12:29.626Z,24.00
2022-12-04T10:15:01.684Z,22.53
2022-12-04T10:18:05.783Z,22.57
2022-12-04T10:20:44.617Z,22.37
2022-12-04T10:23:44.151Z,22.47
2022-12-04T10:26:15.188Z,22.30
2022-12-04T10:28:44.901Z,23.00
2022-12-04T10:31:14.104Z,22.33
2022-12-04T10:33:56.795Z,23.30
2022-12-04T10:36:28.833Z,22.87
2022-12-04T10:39:16.394Z,23.57
2022-12-04T10:41:46.643Z,23.13
2022-12-04T10:44:17.750Z,24.83
2022-12-04T10:46:46.307Z,22.83
2022-12-04T10:49:19.974Z,22.60
2022-12-04T10:51:47.720Z,25.77
2022-12-04T10:54:31.226Z,24.23
2022-12-04T10:57:00.045Z,24.57
2022-12-04T10:59:27.878Z,24.83
2022-12-04T11:02:15.991Z,23.67
2022-12-04T11:04:42.972Z,23.87
2022-12-04T11:07:25.288Z,24.17
2022-12-04T11:10:20.078Z,24.00
2022-12-04T11:13:05.591Z,24.27
2022-12-04T11:15:35.706Z,22.77
2022-12-04T11:18:09.627Z,23.07
2022-12-04T11:20:36.242Z,23.20
2022-12-04T11:23:03.289Z,23.37
2022-12-04T11:25:45.523Z,21.30
2022-12-04T11:28:33.813Z,23.23
2022-12-04T11:31:05.277Z,24.20
2022-12-04T11:33:38.588Z,24.03
2022-12-04T11:36:35.327Z,24.87
2022-12-04T11:39:15.421Z,21.73
2022-12-04T11:41:41.942Z,23.23
2022-12-04T11:44:31.216Z,24.77
2022-12-04T11:47:02.586Z,22.87
2022-12-04T11:49:31.763Z,21.70
2022-12-04T11:52:22.053Z,21.70
2022-12-04T11:54:56.059Z,21.30
2022-12-04T11:57:40.035Z,21.20
2022-12-04T12:00:15.017Z,23.13
2022-12-04T12:03:09.654Z,20.37
2022-12-04T12:06:14.145Z,20.77
2022-12-04T12:08:59.786Z,22.00
2022-12-04T12:11:35.223Z,22.93
2022-12-04T12:14:44.551Z,21.90
2022-12-04T12:17:21.940Z,22.53
2022-12-04T12:20:13.259Z,23.23
2022-12-04T12:22:45.623Z,23.43
2022-12-04T12:25:30.412Z,24.30
2022-12-04T12:28:18.559Z,23.17
2022-12-04T12:31:25.504Z,23.80
2022-12-04T12:34:00.634Z,22.87
2022-12-04T12:36:29.811Z,23.93
2022-12-04T12:39:03.649Z,23.70
2022-12-04T12:41:45.839Z,24.20
2022-12-04T12:44:21.520Z,22.50
2022-12-04T12:46:58.075Z,22.90
2022-12-04T12:49:32.311Z,23.83
2022-12-04T12:52:04.615Z,23.90
2022-12-04T12:54:39.410Z,23.50
2022-12-04T12:57:12.651Z,24.53
2022-12-04T12:59:43.949Z,23.87
2022-12-04T13:02:28.429Z,23.27
2022-12-04T13:04:58.103Z,23.40
2022-12-04T13:07:31.669Z,23.73
2022-12-04T13:10:07.023Z,23.33
2022-12-04T13:12:53.188Z,22.80
2022-12-04T13:15:21.821Z,23.73
2022-12-04T13:17:50.200Z,23.40
2022-12-04T13:20:31.984Z,25.63
2022-12-04T13:23:13.412Z,24.03
2022-12-04T13:26:18.594Z,27.03
2022-12-04T13:28:51.565Z,25.73
2022-12-04T13:31:35.765Z,24.57
2022-12-04T13:34:24.216Z,25.33
2022-12-04T13:37:04.000Z,23.37
2022-12-04T13:39:52.474Z,24.77
2022-12-04T13:42:24.415Z,24.73
2022-12-04T13:44:59.661Z,25.63
2022-12-04T13:47:30.854Z,26.03
2022-12-04T13:50:19.492Z,24.57
2022-12-04T13:52:47.796Z,25.47
2022-12-04T13:55:37.901Z,24.37
2022-12-04T13:58:28.865Z,23.60
2022-12-04T14:01:23.446Z,24.20
2022-12-04T14:03:52.507Z,22.73
2022-12-04T14:06:39.599Z,24.77
2022-12-04T14:09:09.099Z,24.80
2022-12-04T14:11:46.716Z,24.90
2022-12-04T14:14:26.231Z,24.47
2022-12-04T14:16:53.183Z,25.10
2022-12-04T14:19:41.095Z,25.23
2022-12-04T14:22:25.636Z,24.97
2022-12-04T14:24:52.325Z,24.47
2022-12-04T14:27:42.416Z,24.23
2022-12-04T14:30:25.647Z,22.30
2022-12-04T14:33:00.676Z,22.13
2022-12-04T14:35:28.673Z,23.60
2022-12-04T14:38:02.485Z,22.80
2022-12-04T14:40:34.045Z,21.67
2022-12-04T14:43:00.904Z,21.70
2022-12-04T14:45:46.391Z,21.67
2022-12-04T14:48:37.196Z,22.87
2022-12-04T14:51:23.041Z,22.70
2022-12-04T14:54:09.463Z,23.30
2022-12-04T14:56:56.811Z,20.47
2022-12-04T14:59:25.484Z,21.63
2022-12-04T15:01:53.955Z,22.80
2022-12-04T15:04:26.609Z,21.70
2022-12-04T15:06:59.712Z,23.17
2022-12-04T15:09:46.203Z,22.50
2022-12-04T15:12:35.708Z,22.00
2022-12-04T15:15:11.738Z,21.03
2022-12-04T15:17:38.374Z,23.40
2022-12-04T15:20:15.923Z,21.00
2022-12-04T15:22:42.474Z,21.80
2022-12-04T15:25:16.954Z,21.77
2022-12-04T15:27:43.481Z,23.67
2022-12-04T15:30:23.400Z,23.03
2022-12-04T15:32:51.886Z,23.93
2022-12-04T15:35:30.269Z,23.37
2022-12-04T15:37:56.954Z,23.37
2022-12-04T15:40:28.171Z,23.17
2022-12-04T15:42:55.330Z,21.97
2022-12-04T15:45:25.394Z,23.13
2022-12-04T15:47:53.818Z,23.23
2022-12-04T15:50:23.272Z,24.80
2022-12-04T15:53:07.120Z,24.23
2022-12-04T15:55:37.947Z,23.13
2022-12-04T15:58:26.689Z,24.27
2022-12-04T16:01:02.396Z,23.03
2022-12-04T16:03:32.249Z,24.53
2022-12-04T16:06:04.246Z,23.30
2022-12-04T16:08:32.993Z,23.27
2022-12-04T16:11:04.053Z,22.00
2022-12-04T16:13:33.884Z,22.77
2022-12-04T16:16:00.660Z,22.10
2022-12-04T16:18:28.216Z,23.23
2022-12-04T16:20:54.793Z,22.83
2022-12-04T16:23:24.107Z,22.10
2022-12-04T16:25:53.532Z,22.20
2022-12-04T16:28:20.480Z,22.90
2022-12-04T16:30:47.178Z,22.70
2022-12-04T16:33:15.698Z,23.47
2022-12-04T16:35:42.583Z,23.27
2022-12-04T16:38:14.074Z,23.80
2022-12-04T16:40:40.504Z,21.73
2022-12-04T16:43:07.150Z,23.00
2022-12-04T16:45:35.278Z,23.60
2022-12-04T16:48:01.767Z,24.03
2022-12-04T16:50:28.384Z,24.07
2022-12-04T16:52:54.877Z,22.53
2022-12-04T16:55:26.008Z,23.17
2022-12-04T16:57:53.143Z,23.10
2022-12-04T17:00:20.186Z,22.97
2022-12-04T17:02:46.912Z,23.43
2022-12-04T17:05:22.385Z,24.47
2022-12-04T17:07:49.409Z,23.07
2022-12-04T17:10:20.337Z,21.67
2022-12-04T17:12:53.301Z,22.67
2022-12-04T17:15:19.981Z,23.77
2022-12-04T17:17:46.475Z,22.57
2022-12-04T17:20:15.532Z,20.70
2022-12-04T17:22:42.025Z,20.10
2022-12-04T17:25:09.172Z,19.57
2022-12-04T17:27:36.025Z,20.17
2022-12-04T17:30:03.077Z,20.67
2022-12-04T17:32:33.341Z,19.17
2022-12-04T17:34:59.861Z,20.20
2022-12-04T17:37:26.334Z,18.87
2022-12-04T17:39:52.900Z,19.07
2022-12-04T17:42:20.282Z,18.50
2022-12-04T17:44:46.760Z,18.17
2022-12-04T17:47:13.297Z,19.43
2022-12-04T17:49:39.813Z,19.97
2022-12-04T17:52:06.455Z,20.33
2022-12-04T17:54:34.018Z,18.97
2022-12-04T17:57:00.615Z,18.50
2022-12-04T17:59:27.178Z,20.10
2022-12-04T18:01:53.725Z,20.77
2022-12-04T18:04:20.625Z,18.83
2022-12-04T18:06:47.244Z,18.10
2022-12-04T18:09:15.466Z,19.07
2022-12-04T18:11:44.771Z,19.30
2022-12-04T18:14:13.448Z,17.90
2022-12-04T18:16:42.812Z,17.63
2022-12-04T18:19:10.507Z,17.80
2022-12-04T18:21:36.938Z,18.47
2022-12-04T18:24:04.538Z,17.87
2022-12-04T18:26:36.817Z,18.33
2022-12-04T18:29:04.796Z,17.53
2022-12-04T18:31:31.725Z,18.50
2022-12-04T18:33:58.213Z,18.83
2022-12-04T18:36:27.453Z,19.43
2022-12-04T18:39:04.733Z,20.47
2022-12-04T18:41:31.641Z,18.70
2022-12-04T18:43:58.151Z,17.57
2022-12-04T18:46:25.130Z,19.57
2022-12-04T18:48:58.478Z,17.63
2022-12-04T18:51:30.613Z,18.23
2022-12-04T18:54:02.963Z,17.20
2022-12-04T18:56:30.070Z,17.10
2022-12-04T18:58:58.322Z,17.13
2022-12-04T19:01:24.939Z,17.97
2022-12-04T19:03:55.990Z,17.07
2022-12-04T19:06:27.660Z,17.57
2022-12-04T19:08:54.520Z,17.37
2022-12-04T19:11:21.285Z,18.50
2022-12-04T19:13:47.992Z,18.03
2022-12-04T19:16:16.021Z,18.77
2022-12-04T19:18:45.117Z,17.10
2022-12-04T19:21:11.591Z,19.97
2022-12-04T19:23:38.198Z,16.47
2022-12-04T19:26:05.140Z,19.00
2022-12-04T19:28:31.830Z,18.73
2022-12-04T19:30:58.552Z,19.10
2022-12-04T19:33:25.272Z,18.97
2022-12-04T19:35:59.370Z,18.53
2022-12-04T19:38:25.941Z,18.63
2022-12-04T19:41:07.123Z,19.33
2022-12-04T19:43:33.885Z,19.70
2022-12-04T19:46:00.503Z,20.37
2022-12-04T19:48:27.277Z,20.17
2022-12-04T19:50:53.924Z,21.70
2022-12-04T19:53:20.497Z,21.07
2022-12-04T19:55:47.149Z,19.67
2022-12-04T19:58:13.996Z,20.53
2022-12-04T20:00:40.461Z,20.17
2022-12-04T20:03:06.972Z,19.83
2022-12-04T20:05:36.678Z,19.07
2022-12-04T20:10:28.965Z,19.40
2022-12-04T20:12:55.545Z,20.30
2022-12-04T20:15:21.946Z,19.57
2022-12-04T20:17:48.510Z,20.37
2022-12-04T20:20:15.485Z,21.10
2022-12-04T20:22:42.128Z,21.70
2022-12-04T20:25:08.782Z,21.33
2022-12-04T20:27:35.554Z,19.83
2022-12-04T20:30:02.141Z,20.20
2022-12-04T20:32:28.585Z,19.47
2022-12-04T20:34:55.077Z,18.97
2022-12-04T20:37:21.597Z,20.07
2022-12-04T20:39:48.262Z,19.53
2022-12-04T20:42:15.692Z,19.37
2022-12-04T20:44:42.233Z,20.93
2022-12-04T20:47:08.654Z,20.80
2022-12-04T20:49:35.582Z,20.73
2022-12-04T20:52:02.129Z,20.73
2022-12-04T20:54:28.699Z,20.13
2022-12-04T20:56:56.320Z,18.77
2022-12-04T20:59:24.079Z,21.23
2022-12-04T21:01:51.793Z,20.50
2022-12-04T21:04:18.867Z,19.87
2022-12-04T21:06:46.760Z,21.97
2022-12-04T21:09:15.885Z,21.03
2022-12-04T21:11:47.472Z,23.23
2022-12-04T21:14:35.201Z,23.10
2022-12-04T21:17:02.036Z,22.90
2022-12-04T21:19:28.605Z,21.50
2022-12-04T21:21:55.359Z,20.00
2022-12-04T21:24:23.621Z,21.43
2022-12-04T21:26:50.081Z,20.97
2022-12-04T21:29:16.581Z,20.43
2022-12-04T21:31:43.207Z,20.50
2022-12-04T21:34:12.962Z,21.07
2022-12-04T21:36:39.929Z,20.60
2022-12-04T21:39:07.754Z,19.73
2022-12-04T21:41:53.828Z,19.47
2022-12-04T21:44:21.507Z,20.43
2022-12-04T21:46:48.476Z,20.00
2022-12-04T21:49:15.904Z,20.70
2022-12-04T21:51:58.869Z,20.33
2022-12-04T21:54:27.323Z,21.33
2022-12-04T21:56:54.081Z,21.67
2022-12-04T21:59:20.504Z,21.87
2022-12-04T22:01:47.068Z,22.07
2022-12-04T22:04:13.804Z,22.43
2022-12-04T22:06:40.400Z,22.00
2022-12-04T22:09:09.682Z,20.33
2022-12-04T22:11:36.936Z,19.60
2022-12-04T22:14:03.786Z,19.80
2022-12-04T22:16:31.344Z,20.73
2022-12-04T22:18:59.739Z,21.03
2022-12-04T22:21:27.092Z,18.40
2022-12-04T22:24:00.935Z,18.27
2022-12-04T22:26:28.601Z,18.47
2022-12-04T22:28:55.520Z,19.23
2022-12-04T22:31:23.803Z,18.33
2022-12-04T22:33:53.281Z,20.27
2022-12-04T22:36:22.724Z,17.23
2022-12-04T22:41:35.962Z,16.30
2022-12-04T22:44:02.494Z,16.93
2022-12-04T22:46:29.082Z,17.37
2022-12-04T22:48:56.477Z,17.70
2022-12-04T22:51:23.158Z,17.13
2022-12-04T22:53:52.376Z,16.53
2022-12-04T22:56:23.881Z,17.57
2022-12-04T22:58:51.023Z,17.20
2022-12-04T23:01:29.145Z,17.30
2022-12-04T23:03:56.139Z,16.97
2022-12-04T23:06:23.943Z,17.30
2022-12-04T23:08:58.063Z,18.00
2022-12-04T23:11:25.516Z,16.50
2022-12-04T23:13:53.699Z,16.53
2022-12-04T23:16:21.868Z,16.73
2022-12-04T23:18:48.650Z,16.17
2022-12-04T23:21:16.990Z,16.80
2022-12-04T23:23:46.340Z,18.07
2022-12-04T23:26:18.473Z,17.03
2022-12-04T23:28:45.104Z,17.60
2022-12-04T23:31:12.061Z,17.37
2022-12-04T23:33:39.259Z,17.00
2022-12-04T23:36:06.650Z,18.87
2022-12-04T23:38:35.953Z,19.83
2022-12-04T23:41:13.820Z,19.63
2022-12-04T23:43:40.804Z,17.93
2022-12-04T23:46:11.347Z,18.13
2022-12-04T23:48:42.674Z,17.90
2022-12-04T23:51:10.642Z,17.80
2022-12-04T23:53:37.495Z,18.10
2022-12-04T23:56:21.559Z,18.23
2022-12-04T23:58:49.409Z,18.20
